IDOT BID ITEMS (Switch to TOLLWAY)

Show/Hide column: Pay Item # - Pay Item Description - Unit - County - Dist - Contract - Date
Pay Item # Pay Item Description Unit Quantity Award Unit Price County Dist Contract Date Bid Unit Prices:
40600990 TEMPORARY RAMP SQ YD 20 $43.90 POPE 9 99658 03/05/2021 $72.12, $43.90
40600990 TEMPORARY RAMP SQ YD 1,080 $0.00 ST CLAIR 8 76K45 03/05/2021 $14.18, $0.00
40600990 TEMPORARY RAMP SQ YD 417 $1.00 MOULTRIE 7 74A11 03/05/2021 $1.00
40600990 TEMPORARY RAMP SQ YD 125 $11.32 PIKE 6 72L66 03/05/2021 $11.32
40600990 TEMPORARY RAMP SQ YD 320 $17.22 TAZEWELL 4 68F69 03/05/2021 $17.22
40600990 TEMPORARY RAMP SQ YD 189 $15.00 PEORIA 4 68F12 03/05/2021 $15.00, $43.03
40600990 TEMPORARY RAMP SQ YD 469 $0.01 FORD 3 66K61 03/05/2021 $0.01
40600990 TEMPORARY RAMP SQ YD 395 $0.01 IROQUOIS 3 66K56 03/05/2021 $0.01
40600990 TEMPORARY RAMP SQ YD 109 $56.00 KANKAKEE 3 66F09 03/05/2021 $56.00
40600990 TEMPORARY RAMP SQ YD 1,120 $10.00 LASALLE 3 66D55 03/05/2021 $10.00, $29.00
40600990 TEMPORARY RAMP SQ YD 918 $10.00 LASALLE 3 66B07 03/05/2021 $10.00, $11.50, $23.92, $4.18
40600990 TEMPORARY RAMP SQ YD 74 $18.00 LEE 2 64M35 03/05/2021 $55.00, $10.00, $11.00, $5.00, $10.00, $18.00
40600990 TEMPORARY RAMP SQ YD 20 $29.45 POPE 9 99657 03/05/2021 $72.12, $29.45
40600990 TEMPORARY RAMP SQ YD 1,007 $0.01 ST. CLAIR 8 97751 03/05/2021 $0.01
40600990 TEMPORARY RAMP SQ YD 50 $0.00 CLARK 7 95883 03/05/2021 $0.00, $50.00
40600990 TEMPORARY RAMP SQ YD 273 $32.92 MCDONOUGH 4 89788 03/05/2021 $32.92
40600990 TEMPORARY RAMP SQ YD 53 $49.70 FULTON 4 89765 03/05/2021 $49.70
40600990 TEMPORARY RAMP SQ YD 85 $17.65 OGLE 2 85707 03/05/2021 $20.00, $11.00, $5.00, $24.80, $17.65
40600990 TEMPORARY RAMP SQ YD 12 $25.00 JEFFERSON 9 78804 03/05/2021 $50.00, $25.00
40600990 TEMPORARY RAMP SQ YD 937 $9.71 SALINE 9 78760 03/05/2021 $47.16, $9.71
  • Showing 1 to 20 of 481 entries.